Time;durP1;ratioP1;P1;durP2;ratioP2;P2;SDS_P1;SDS_P2;PMS_P1;PMS_P2;Temp;Humidity;BMP_temperature;BMP_pressure;BME280_temperature;BME280_humidity;BME280_pressure;Samples;Min_cycle;Max_cycle;Signal;HPM_P1;HPM_P2
2022/12/07 00:01:18;;;;;;;48.35;27.93;;;;;;;3.70;98.14;99944.09;1731109;82;25795;-83
2022/12/07 00:03:47;;;;;;;55.12;27.95;;;;;;;3.73;98.38;99953.02;1716817;83;25628;-84
2022/12/07 00:06:15;;;;;;;56.80;30.08;;;;;;;3.75;98.47;99945.74;1695266;84;27471;-84
2022/12/07 00:08:42;;;;;;;47.30;28.02;;;;;;;3.80;98.58;99940.81;1733187;82;25840;-84
2022/12/07 00:11:16;;;;;;;51.58;29.35;;;;;;;3.81;98.56;99932.69;1735803;82;25535;-83
2022/12/07 00:13:43;;;;;;;53.30;29.63;;;;;;;3.82;98.54;99934.37;1724045;82;25806;-84
2022/12/07 00:16:14;;;;;;;47.93;27.35;;;;;;;3.82;98.71;99933.05;1723579;82;25684;-86
2022/12/07 00:18:42;;;;;;;48.75;27.13;;;;;;;3.84;98.82;99928.41;1717645;82;27519;-85
2022/12/07 00:21:12;;;;;;;46.23;26.10;;;;;;;3.86;98.83;99930.89;1731046;82;25776;-86
2022/12/07 00:23:41;;;;;;;39.27;22.35;;;;;;;3.87;98.83;99931.24;1733616;82;35673;-87
2022/12/07 00:26:20;;;;;;;31.37;18.42;;;;;;;3.85;98.78;99935.35;1703837;83;25794;-86
2022/12/07 00:28:50;;;;;;;27.25;16.70;;;;;;;3.84;98.80;99933.70;1701278;84;25312;-83
2022/12/07 00:31:19;;;;;;;24.12;15.20;;;;;;;3.81;98.70;99937.98;1700380;84;27532;-84
2022/12/07 00:33:46;;;;;;;21.40;13.35;;;;;;;3.79;98.73;99942.62;1677959;84;25914;-83
2022/12/07 00:36:17;;;;;;;21.12;13.55;;;;;;;3.76;98.72;99934.98;1697892;82;26099;-83
2022/12/07 00:38:43;;;;;;;19.48;12.90;;;;;;;3.73;98.77;99934.48;1680908;84;25986;-83
2022/12/07 00:41:14;;;;;;;17.90;12.07;;;;;;;3.70;98.78;99931.65;1699590;84;25355;-83
2022/12/07 00:43:42;;;;;;;17.80;12.33;;;;;;;3.70;98.93;99933.49;1722271;81;28235;-83
2022/12/07 00:46:09;;;;;;;21.60;13.60;;;;;;;3.69;98.95;99931.81;1734722;81;26462;-84
2022/12/07 00:48:36;;;;;;;17.98;12.37;;;;;;;3.70;99.16;99925.55;1732950;81;25610;-83
2022/12/07 00:51:04;;;;;;;21.48;12.37;;;;;;;3.72;99.22;99930.99;1729186;81;25840;-83
2022/12/07 00:53:31;;;;;;;21.93;13.53;;;;;;;3.71;99.09;99932.00;1703152;83;26182;-83
2022/12/07 00:55:57;;;;;;;21.77;13.43;;;;;;;3.71;99.20;99925.37;1712913;82;27465;-82
2022/12/07 00:58:24;;;;;;;20.52;12.80;;;;;;;3.73;99.22;99930.50;1731805;82;25323;-82
2022/12/07 01:00:50;;;;;;;19.73;12.53;;;;;;;3.74;99.26;99929.02;1710196;83;25719;-83
2022/12/07 01:03:17;;;;;;;24.32;13.40;;;;;;;3.72;99.17;99932.83;1732078;82;26368;-86
2022/12/07 01:05:53;;;;;;;22.15;14.03;;;;;;;3.72;99.31;99933.64;1730747;81;25264;-85
2022/12/07 01:08:19;;;;;;;20.48;13.18;;;;;;;3.75;99.36;99932.02;1726152;82;27478;-84
2022/12/07 01:10:47;;;;;;;18.55;12.43;;;;;;;3.76;99.31;99933.66;1728334;81;25795;-84
2022/12/07 01:13:14;;;;;;;20.20;12.85;;;;;;;3.75;99.28;99925.39;1737378;82;25359;-83
2022/12/07 01:15:45;;;;;;;18.50;11.18;;;;;;;3.72;99.19;99927.02;1739973;82;25893;-83
2022/12/07 01:18:11;;;;;;;15.38;10.28;;;;;;;3.67;98.95;99929.34;1727776;81;25752;-83
2022/12/07 01:20:40;;;;;;;18.67;11.70;;;;;;;3.62;98.93;99930.30;1672334;83;27459;-82
2022/12/07 01:23:06;;;;;;;16.90;11.55;;;;;;;3.60;99.08;99927.47;1734926;82;26243;-85
2022/12/07 01:25:32;;;;;;;16.95;10.95;;;;;;;3.57;99.09;99926.48;1722404;81;25889;-86
2022/12/07 01:27:59;;;;;;;17.85;10.85;;;;;;;3.57;99.21;99920.66;1740648;82;25768;-87
2022/12/07 01:30:25;;;;;;;16.45;11.35;;;;;;;3.59;99.23;99924.50;1738643;81;25917;-86
2022/12/07 01:32:51;;;;;;;15.32;9.90;;;;;;;3.60;99.27;99925.66;1718268;82;27624;-85
2022/12/07 01:35:18;;;;;;;18.05;10.50;;;;;;;3.60;99.18;99924.33;1740410;82;25792;-85
2022/12/07 01:37:44;;;;;;;18.37;11.75;;;;;;;3.58;99.10;99922.83;1734215;81;26154;-86
2022/12/07 01:40:11;;;;;;;17.05;11.12;;;;;;;3.55;99.09;99923.97;1718146;82;26130;-86
2022/12/07 01:42:38;;;;;;;17.25;11.68;;;;;;;3.53;99.15;99923.30;1744913;82;25320;-86
2022/12/07 01:45:41;;;;;;;19.90;12.18;;;;;;;3.50;98.95;99916.17;1717596;83;28277;-86
2022/12/07 01:48:11;;;;;;;17.48;11.00;;;;;;;3.47;98.99;99917.80;1745243;81;25800;-85
2022/12/07 01:50:40;;;;;;;18.92;12.35;;;;;;;3.44;99.11;99917.65;1730468;82;25902;-86
2022/12/07 01:53:09;;;;;;;19.12;12.80;;;;;;;3.43;99.16;99918.62;1719625;81;27122;-87
2022/12/07 01:55:40;;;;;;;16.52;11.50;;;;;;;3.44;99.17;99917.65;1695830;83;25771;-87
2022/12/07 01:58:07;;;;;;;;;;;;;;;3.42;99.08;99909.52;1687421;84;28278;-85
2022/12/07 02:00:33;;;;;;;16.20;11.10;;;;;;;3.39;99.14;99911.98;1699160;84;25419;-83
2022/12/07 02:03:14;;;;;;;19.07;11.93;;;;;;;3.35;99.25;99900.54;1732183;82;25786;-83
2022/12/07 02:05:42;;;;;;;17.17;11.10;;;;;;;3.36;99.39;99900.89;1734529;81;26818;-84
2022/12/07 02:08:11;;;;;;;18.67;12.10;;;;;;;3.36;99.43;99887.14;1739914;81;25970;-84
2022/12/07 02:10:37;;;;;;;18.77;11.63;;;;;;;3.38;99.48;99893.10;1720973;82;27705;-83
2022/12/07 02:13:12;;;;;;;15.72;10.68;;;;;;;3.38;99.38;99890.45;1729225;81;25322;-83
2022/12/07 02:16:05;;;;;;;15.65;11.63;;;;;;;3.37;99.24;99898.08;1729808;82;26021;-84
2022/12/07 02:18:56;;;;;;;17.15;11.38;;;;;;;3.32;99.17;99891.09;1727874;82;26559;-83
2022/12/07 02:21:50;;;;;;;18.05;12.00;;;;;;;3.30;99.21;99893.07;1710885;83;25302;-84
2022/12/07 02:24:57;;;;;;;17.62;12.35;;;;;;;3.28;99.19;99894.20;1679145;84;28271;-84
2022/12/07 02:27:53;;;;;;;21.00;12.53;;;;;;;3.29;99.39;99887.45;1694873;84;25632;-88
2022/12/07 02:30:22;;;;;;;20.27;12.58;;;;;;;3.29;99.34;99887.94;1685192;84;25845;-86
2022/12/07 02:33:06;;;;;;;20.85;12.63;;;;;;;3.29;99.43;99883.48;1731976;82;25865;-88
2022/12/07 02:36:04;;;;;;;19.02;12.47;;;;;;;3.28;99.31;99879.66;1718118;82;25350;-85
2022/12/07 02:39:10;;;;;;;16.27;11.68;;;;;;;3.27;99.36;99880.17;1726158;82;27483;-87
2022/12/07 02:41:40;;;;;;;18.20;11.80;;;;;;;3.28;99.52;99876.52;1648009;86;25421;-82
2022/12/07 02:44:12;;;;;;;21.77;12.45;;;;;;;3.29;99.53;99877.36;1719661;81;25837;-84
2022/12/07 02:46:43;;;;;;;14.73;10.93;;;;;;;3.30;99.55;99882.48;1743698;82;25868;-83
2022/12/07 02:49:10;;;;;;;;;;;;;;;3.31;99.52;99884.16;1692079;83;25733;-83
2022/12/07 02:51:43;;;;;;;15.38;10.68;;;;;;;3.30;99.51;99877.19;1711006;83;28251;-84
2022/12/07 02:54:17;;;;;;;15.68;10.38;;;;;;;3.30;99.61;99876.35;1729708;82;26169;-83
2022/12/07 02:56:52;;;;;;;16.25;10.68;;;;;;;3.29;99.45;99871.58;1724424;82;25786;-86
2022/12/07 02:59:42;;;;;;;19.90;11.63;;;;;;;3.25;99.39;99868.88;1728217;81;25823;-85
2022/12/07 03:02:47;;;;;;;14.25;10.32;;;;;;;3.27;99.53;99872.72;1719287;82;26265;-86
2022/12/07 03:05:22;;;;;;;16.23;10.58;;;;;;;3.25;99.45;99872.85;1730941;82;27481;-86
2022/12/07 03:08:15;;;;;;;17.17;10.85;;;;;;;3.23;99.31;99870.05;1730088;81;26479;-85
2022/12/07 03:11:02;;;;;;;15.83;9.20;;;;;;;3.20;99.42;99871.19;1723410;81;26110;-87
2022/12/07 03:13:34;;;;;;;15.25;10.38;;;;;;;3.20;99.30;99870.35;1745324;81;25832;-85
2022/12/07 03:16:40;;;;;;;17.27;10.38;;;;;;;3.17;99.26;99875.95;1713805;83;25942;-85
2022/12/07 03:19:15;;;;;;;14.60;9.70;;;;;;;3.16;99.33;99867.69;1733154;82;27499;-86
2022/12/07 03:21:46;;;;;;;14.58;10.58;;;;;;;3.17;99.36;99870.66;1744414;81;26561;-85
2022/12/07 03:24:20;;;;;;;15.75;10.85;;;;;;;3.17;99.43;99870.66;1727941;82;25648;-85
2022/12/07 03:26:55;;;;;;;17.90;10.72;;;;;;;3.21;99.51;99874.67;1732321;82;26609;-86
2022/12/07 03:29:30;;;;;;;19.27;11.80;;;;;;;3.21;99.36;99874.67;1731193;82;25856;-86
2022/12/07 03:32:07;;;;;;;18.82;12.10;;;;;;;3.23;99.42;99869.53;1725958;82;27550;-83
2022/12/07 03:34:51;;;;;;;17.17;11.55;;;;;;;3.22;99.39;99860.44;1672366;84;25815;-82
2022/12/07 03:37:28;;;;;;;17.12;11.78;;;;;;;3.23;99.43;99857.63;1683825;84;25832;-85
2022/12/07 03:40:28;;;;;;;19.40;11.80;;;;;;;3.26;99.42;99853.35;1707035;82;25932;-82
2022/12/07 03:42:55;;;;;;;16.20;11.25;;;;;;;3.24;99.40;99853.17;1684922;84;25368;-82
2022/12/07 03:45:27;;;;;;;16.90;11.63;;;;;;;3.26;99.47;99845.91;1694619;84;27556;-83
2022/12/07 03:48:05;;;;;;;18.40;12.03;;;;;;;3.26;99.38;99846.73;1680684;84;25616;-84
2022/12/07 03:50:42;;;;;;;18.90;11.48;;;;;;;3.26;99.24;99843.25;1688266;84;25341;-83
2022/12/07 03:53:38;;;;;;;16.52;10.13;;;;;;;3.26;99.25;99843.25;1701993;84;25959;-83
2022/12/07 03:56:05;;;;;;;13.38;9.48;;;;;;;3.22;98.89;99841.43;1689236;84;26016;-83
2022/12/07 03:58:33;;;;;;;14.18;9.78;;;;;;;3.14;98.75;99846.17;1691392;84;26940;-82
2022/12/07 04:00:59;;;;;;;12.80;8.93;;;;;;;3.09;98.73;99843.19;1680193;84;26541;-83
2022/12/07 04:03:26;;;;;;;14.93;10.05;;;;;;;3.05;98.66;99843.17;1681097;84;25859;-82
2022/12/07 04:05:53;;;;;;;15.45;9.93;;;;;;;3.01;98.70;99842.31;1687788;84;26959;-83
2022/12/07 04:08:19;;;;;;;17.77;10.98;;;;;;;3.02;98.91;99844.80;1694102;84;25818;-83
2022/12/07 04:10:46;;;;;;;14.40;10.55;;;;;;;3.03;98.95;99844.31;1692367;83;27624;-82
2022/12/07 04:13:13;;;;;;;16.70;10.80;;;;;;;3.04;98.94;99841.50;1686026;84;25821;-84
2022/12/07 04:15:39;;;;;;;19.00;11.53;;;;;;;3.06;98.99;99840.84;1677149;83;25869;-83
2022/12/07 04:18:05;;;;;;;22.95;12.63;;;;;;;3.09;99.08;99835.25;1728859;81;26628;-83
2022/12/07 04:20:31;;;;;;;21.87;14.10;;;;;;;3.11;98.95;99838.56;1722544;82;25335;-84
2022/12/07 04:22:58;;;;;;;21.62;13.58;;;;;;;3.09;98.71;99835.25;1675632;84;27558;-83
2022/12/07 04:25:24;;;;;;;19.40;14.40;;;;;;;3.07;98.68;99840.36;1727277;82;26452;-84
2022/12/07 04:27:51;;;;;;;17.87;13.38;;;;;;;3.06;98.67;99842.17;1728543;82;25828;-82
2022/12/07 04:30:17;;;;;;;20.72;14.25;;;;;;;3.08;98.84;99836.22;1728107;81;25908;-86
2022/12/07 04:32:43;;;;;;;18.35;13.10;;;;;;;3.06;98.61;99836.88;1725683;82;25832;-85
2022/12/07 04:35:10;;;;;;;19.40;13.40;;;;;;;3.07;98.69;99833.74;1729119;82;27472;-85
2022/12/07 04:37:38;;;;;;;19.00;12.13;;;;;;;3.08;98.69;99828.28;1702456;83;25866;-87
2022/12/07 04:40:10;;;;;;;21.42;14.70;;;;;;;3.04;98.53;99832.23;1691233;84;25718;-85
2022/12/07 04:42:38;;;;;;;19.90;13.48;;;;;;;3.04;98.73;99824.30;1686248;84;25744;-86
2022/12/07 04:45:05;;;;;;;23.18;14.65;;;;;;;3.06;98.85;99834.23;1686472;84;25996;-87
2022/12/07 04:47:32;;;;;;;20.20;13.58;;;;;;;3.09;98.83;99823.83;1683346;84;28323;-85
2022/12/07 04:49:58;;;;;;;18.35;12.82;;;;;;;3.06;98.45;99822.33;1686884;84;25748;-86
2022/12/07 04:52:24;;;;;;;19.73;12.53;;;;;;;3.05;98.52;99819.84;1722029;82;25867;-86
2022/12/07 04:54:51;;;;;;;18.55;13.10;;;;;;;3.03;98.53;99814.72;1727029;82;25813;-86
2022/12/07 04:57:17;;;;;;;17.45;12.33;;;;;;;3.02;98.42;99824.95;1731208;81;25596;-87
2022/12/07 04:59:43;;;;;;;18.90;12.40;;;;;;;3.00;98.28;99819.48;1725051;82;27441;-86
2022/12/07 05:02:10;;;;;;;21.48;13.65;;;;;;;2.99;98.44;99814.67;1724694;82;25832;-85
2022/12/07 05:04:36;;;;;;;18.60;12.03;;;;;;;2.98;98.39;99814.36;1725516;82;25885;-86
2022/12/07 05:07:02;;;;;;;17.85;11.65;;;;;;;2.98;98.38;99816.16;1727140;81;26669;-86
2022/12/07 05:09:29;;;;;;;17.70;12.40;;;;;;;2.96;98.32;99814.17;1723698;82;25816;-85
2022/12/07 05:11:55;;;;;;;18.82;11.70;;;;;;;2.94;98.25;99813.50;1731457;82;27457;-85
2022/12/07 05:14:21;;;;;;;17.57;11.68;;;;;;;2.91;98.14;99808.02;1728579;81;26462;-84
2022/12/07 05:16:50;;;;;;;18.80;12.03;;;;;;;2.91;98.25;99809.83;1739864;82;25327;-83
2022/12/07 05:19:18;;;;;;;16.82;11.20;;;;;;;2.89;98.10;99800.73;1736542;82;26472;-83
2022/12/07 05:21:45;;;;;;;16.60;10.10;;;;;;;2.85;98.01;99802.05;1718254;82;25371;-83
2022/12/07 05:24:14;;;;;;;17.80;11.48;;;;;;;2.80;98.01;99806.97;1684553;83;27469;-82
2022/12/07 05:26:41;;;;;;;17.15;10.68;;;;;;;2.79;98.02;99804.48;1723294;81;25280;-85
2022/12/07 05:29:07;;;;;;;15.03;10.23;;;;;;;2.81;98.01;99802.52;1733827;81;25885;-84
2022/12/07 05:31:34;;;;;;;17.25;11.03;;;;;;;2.80;97.95;99801.67;1745208;81;25911;-83
2022/12/07 05:34:00;;;;;;;15.38;10.32;;;;;;;2.79;97.96;99801.36;1722662;82;26355;-82
2022/12/07 05:36:28;;;;;;;13.80;9.55;;;;;;;2.78;97.73;99800.20;1728634;81;27557;-84
2022/12/07 05:38:54;;;;;;;13.13;10.35;;;;;;;2.75;97.66;99805.78;1724188;82;25964;-83
2022/12/07 05:44:06;;;;;;;16.70;9.98;;;;;;;2.74;97.75;99802.30;1724351;82;26575;-84
2022/12/07 05:46:33;;;;;;;15.50;10.05;;;;;;;2.72;97.60;99799.47;1744185;81;25855;-83
2022/12/07 05:49:00;;;;;;;14.10;9.45;;;;;;;2.72;97.58;99804.77;1729100;81;28785;-83
2022/12/07 05:51:27;;;;;;;13.18;9.30;;;;;;;2.69;97.52;99806.41;1730206;82;25847;-84
2022/12/07 05:53:53;;;;;;;11.10;8.25;;;;;;;2.70;97.57;99806.25;1726009;82;26411;-83
2022/12/07 05:56:20;;;;;;;12.55;8.13;;;;;;;2.66;97.33;99805.39;1720550;82;25854;-83
2022/12/07 06:01:31;;;;;;;10.28;7.58;;;;;;;2.60;97.35;99809.98;1703285;83;28276;-84
2022/12/07 06:03:57;;;;;;;10.75;7.47;;;;;;;2.56;97.45;99808.64;1704521;83;25770;-83
2022/12/07 06:06:24;;;;;;;11.48;8.50;;;;;;;2.56;97.54;99806.00;1687802;84;25876;-83
2022/12/07 06:08:50;;;;;;;10.38;7.80;;;;;;;2.58;97.75;99810.63;1685822;84;25827;-84
2022/12/07 06:14:01;;;;;;;10.58;7.92;;;;;;;2.58;97.56;99802.70;1685077;84;27478;-83
2022/12/07 06:16:27;;;;;;;10.88;7.53;;;;;;;2.56;97.46;99802.03;1683427;84;25866;-82
2022/12/07 06:18:54;;;;;;;11.63;7.80;;;;;;;2.52;97.32;99797.56;1697780;83;25922;-83
2022/12/07 06:21:20;;;;;;;13.85;9.13;;;;;;;2.52;97.42;99797.56;1683591;83;25782;-84
2022/12/07 06:23:47;;;;;;;15.68;8.73;;;;;;;2.51;97.39;99795.05;1685697;84;25865;-84
2022/12/07 06:26:14;;;;;;;13.10;7.97;;;;;;;2.46;97.32;99787.58;1674530;83;27504;-86
2022/12/07 06:28:40;;;;;;;11.05;7.03;;;;;;;2.41;97.30;99793.00;1720138;82;25752;-83
2022/12/07 06:31:07;;;;;;;10.13;7.47;;;;;;;2.38;97.40;99794.14;1726597;82;25513;-84
2022/12/07 06:33:34;;;;;;;10.13;7.75;;;;;;;2.35;97.46;99796.59;1721454;82;25889;-84
2022/12/07 06:36:00;;;;;;;9.20;7.47;;;;;;;2.38;97.74;99798.58;1729542;81;25357;-84
2022/12/07 06:38:26;;;;;;;9.65;6.65;;;;;;;2.39;97.73;99802.42;1726874;82;27460;-84
2022/12/07 06:40:53;;;;;;;10.45;6.70;;;;;;;2.37;97.66;99799.09;1726268;82;25863;-83
2022/12/07 06:43:19;;;;;;;9.85;6.58;;;;;;;2.37;97.66;99805.70;1723054;82;25333;-83
2022/12/07 06:45:45;;;;;;;7.80;6.10;;;;;;;2.34;97.65;99798.91;1699014;83;25944;-84
2022/12/07 06:48:12;;;;;;;7.28;5.78;;;;;;;2.35;97.81;99803.20;1681290;84;25913;-82
2022/12/07 06:50:38;;;;;;;10.15;6.22;;;;;;;2.34;97.69;99803.36;1699107;84;27629;-84
2022/12/07 06:53:04;;;;;;;9.28;6.40;;;;;;;2.31;97.76;99802.33;1693106;84;25851;-84
2022/12/07 06:55:31;;;;;;;9.80;6.70;;;;;;;2.30;97.96;99804.65;1693965;84;25757;-83
2022/12/07 06:57:57;;;;;;;7.42;5.75;;;;;;;2.33;98.21;99797.23;1679660;84;25884;-85
2022/12/07 07:00:24;;;;;;;10.65;7.40;;;;;;;2.35;98.19;99796.59;1689211;84;25615;-84
2022/12/07 07:02:52;;;;;;;8.38;5.72;;;;;;;2.35;98.16;99799.23;1679405;84;27553;-84
2022/12/07 07:05:21;;;;;;;10.05;7.15;;;;;;;2.35;98.36;99797.91;1688928;84;26045;-83
2022/12/07 07:07:47;;;;;;;8.93;6.60;;;;;;;2.39;98.43;99797.61;1688681;84;25937;-83
2022/12/07 07:10:14;;;;;;;9.70;7.00;;;;;;;2.39;98.53;99803.73;1693069;84;25962;-82
2022/12/07 07:12:40;;;;;;;10.45;7.80;;;;;;;2.40;98.50;99797.94;1690007;84;26441;-83
2022/12/07 07:15:07;;;;;;;8.43;6.58;;;;;;;2.38;98.60;99796.78;1730544;82;27457;-83
2022/12/07 07:17:34;;;;;;;11.03;7.53;;;;;;;2.40;98.72;99801.90;1718506;82;25955;-84
2022/12/07 07:20:00;;;;;;;12.13;7.20;;;;;;;2.39;98.93;99799.77;1725297;82;26139;-83
2022/12/07 07:22:26;;;;;;;12.88;7.47;;;;;;;2.42;99.18;99799.45;1733510;82;25981;-84
2022/12/07 07:24:53;;;;;;;13.85;8.65;;;;;;;2.41;99.23;99800.45;1721538;82;25843;-86
2022/12/07 07:27:19;;;;;;;11.53;8.25;;;;;;;2.42;99.51;99805.25;1724695;82;27539;-83
2022/12/07 07:29:45;;;;;;;15.45;9.30;;;;;;;2.43;99.63;99802.44;1704942;83;25866;-83
2022/12/07 07:32:12;;;;;;;16.85;10.65;;;;;;;2.45;99.84;99799.16;1683073;84;25905;-84
2022/12/07 07:34:38;;;;;;;15.00;10.63;;;;;;;2.48;100.00;99797.50;1675132;83;26022;-84
2022/12/07 07:37:04;;;;;;;17.87;11.15;;;;;;;2.51;100.00;99800.33;1679819;84;26021;-82
2022/12/07 07:39:31;;;;;;;19.25;10.95;;;;;;;2.52;100.00;99794.08;1691606;84;27525;-82
2022/12/07 07:41:57;;;;;;;21.37;12.10;;;;;;;2.53;100.00;99797.04;1690689;84;25914;-84
2022/12/07 07:44:24;;;;;;;19.25;11.12;;;;;;;2.58;100.00;99798.73;1724728;82;25788;-84
2022/12/07 07:46:51;;;;;;;22.35;12.93;;;;;;;2.59;100.00;99799.09;1735280;81;25874;-85
2022/12/07 07:49:17;;;;;;;21.50;13.78;;;;;;;2.61;100.00;99799.24;1733924;81;25712;-83
2022/12/07 07:51:44;;;;;;;27.62;15.45;;;;;;;2.63;100.00;99805.72;1730503;82;27622;-82
2022/12/07 07:54:10;;;;;;;25.50;15.48;;;;;;;2.65;100.00;99802.43;1726115;82;26590;-82
2022/12/07 07:56:36;;;;;;;23.10;14.38;;;;;;;2.68;100.00;99806.06;1732890;81;25863;-85
2022/12/07 07:59:03;;;;;;;26.80;14.10;;;;;;;2.69;100.00;99805.09;1733041;82;25965;-83
2022/12/07 08:01:29;;;;;;;27.10;15.45;;;;;;;2.69;100.00;99809.89;1728982;82;26066;-83
2022/12/07 08:03:55;;;;;;;29.90;17.05;;;;;;;2.69;100.00;99807.25;1734813;81;27461;-84
2022/12/07 08:06:22;;;;;;;28.15;17.57;;;;;;;2.71;100.00;99815.86;1730713;82;25724;-83
2022/12/07 08:08:48;;;;;;;27.52;15.23;;;;;;;2.76;100.00;99816.20;1729288;82;25725;-84
2022/12/07 08:11:14;;;;;;;26.17;15.30;;;;;;;2.79;100.00;99817.70;1720070;81;26454;-83
2022/12/07 08:13:40;;;;;;;25.90;13.70;;;;;;;2.81;100.00;99817.89;1687597;83;25826;-82
2022/12/07 08:16:09;;;;;;;30.02;15.72;;;;;;;2.88;100.00;99818.94;1722900;81;28484;-83
2022/12/07 08:18:37;;;;;;;29.07;17.50;;;;;;;2.95;100.00;99821.78;1717689;83;26088;-82
2022/12/07 08:21:05;;;;;;;31.42;18.50;;;;;;;2.99;100.00;99819.16;1721356;82;25880;-85
2022/12/07 08:23:34;;;;;;;51.50;32.40;;;;;;;2.99;100.00;99822.61;1717808;82;25282;-85
2022/12/07 08:26:07;;;;;;;25.02;15.50;;;;;;;3.02;100.00;99827.59;1697070;83;26012;-83
2022/12/07 08:28:35;;;;;;;23.95;13.00;;;;;;;3.04;100.00;99835.37;1697043;83;27672;-88
2022/12/07 08:31:11;;;;;;;23.40;12.60;;;;;;;3.04;100.00;99831.40;1700832;84;25308;-88
2022/12/07 08:33:38;;;;;;;26.10;14.95;;;;;;;3.05;100.00;99834.39;1705139;84;25300;-85
2022/12/07 08:36:39;;;;;;;36.60;21.50;;;;;;;3.06;100.00;99832.91;1686525;84;26177;-91
2022/12/07 08:39:03;;;;;;;28.92;17.12;;;;;;;3.08;100.00;99840.67;1668580;83;25885;-81
2022/12/07 08:41:28;;;;;;;26.12;17.40;;;;;;;3.09;100.00;99840.55;1730163;82;28293;-81
2022/12/07 08:43:55;;;;;;;29.80;18.52;;;;;;;3.14;100.00;99839.55;1718339;83;25835;-82
2022/12/07 08:46:37;;;;;;;40.25;25.15;;;;;;;3.17;100.00;99837.09;1738654;82;26378;-81
2022/12/07 08:49:15;;;;;;;30.23;16.82;;;;;;;3.19;100.00;99833.80;1735022;81;26925;-85
2022/12/07 08:51:42;;;;;;;31.57;16.70;;;;;;;3.20;100.00;99830.17;1724615;81;25920;-78
2022/12/07 08:54:13;;;;;;;26.17;15.13;;;;;;;3.19;100.00;99832.98;1729246;81;28267;-78
2022/12/07 08:56:40;;;;;;;26.68;16.87;;;;;;;3.19;100.00;99829.83;1717292;83;25840;-78
2022/12/07 08:59:07;;;;;;;46.68;28.92;;;;;;;3.21;100.00;99834.47;1723705;82;25992;-78
2022/12/07 09:01:34;;;;;;;38.95;25.25;;;;;;;3.22;100.00;99825.55;1720733;82;26667;-78
2022/12/07 09:04:00;;;;;;;30.75;20.52;;;;;;;3.25;100.00;99825.22;1723750;82;25870;-78
2022/12/07 09:06:28;;;;;;;32.45;19.52;;;;;;;3.28;100.00;99826.72;1722508;82;27457;-78
2022/12/07 09:08:58;;;;;;;24.87;14.47;;;;;;;3.27;100.00;99817.97;1729314;82;26417;-78
2022/12/07 09:11:25;;;;;;;32.70;15.90;;;;;;;3.26;99.78;99822.08;1730872;81;25748;-78
2022/12/07 09:13:51;;;;;;;26.77;12.90;;;;;;;3.25;99.33;99819.12;1700870;83;26572;-78
2022/12/07 09:16:17;;;;;;;24.57;14.45;;;;;;;3.23;98.98;99813.95;1682927;84;25783;-78
2022/12/07 09:18:44;;;;;;;28.15;16.52;;;;;;;3.22;98.88;99813.64;1697280;84;27453;-78
2022/12/07 09:21:10;;;;;;;51.85;29.67;;;;;;;3.21;98.80;99811.97;1681573;84;25940;-78
2022/12/07 09:23:36;;;;;;;71.05;43.50;;;;;;;3.24;99.09;99808.19;1708869;83;25757;-78
2022/12/07 09:26:04;;;;;;;44.30;32.30;;;;;;;3.29;99.18;99807.22;1680239;84;25825;-77
2022/12/07 09:28:31;;;;;;;85.10;62.43;;;;;;;3.29;98.86;99805.89;1725408;82;25920;-78
2022/12/07 09:30:57;;;;;;;121.17;104.27;;;;;;;3.31;99.08;99801.27;1721908;82;27608;-78
2022/12/07 09:33:24;;;;;;;52.95;36.83;;;;;;;3.31;98.95;99803.43;1720752;82;25896;-77
2022/12/07 09:35:51;;;;;;;34.45;20.62;;;;;;;3.32;98.81;99802.42;1720642;82;25669;-77
2022/12/07 09:38:19;;;;;;;31.40;18.62;;;;;;;3.30;98.49;99795.14;1739289;82;25801;-78
2022/12/07 09:40:47;;;;;;;30.90;18.40;;;;;;;3.31;98.46;99794.66;1729945;82;25600;-78
2022/12/07 09:43:20;;;;;;;27.95;14.95;;;;;;;3.29;98.12;99797.47;1710086;83;27686;-77
2022/12/07 09:45:54;;;;;;;25.08;14.73;;;;;;;3.27;97.81;99795.48;1692301;84;25798;-77
2022/12/07 09:48:36;;;;;;;23.57;12.15;;;;;;;3.25;97.98;99797.42;1697012;84;25789;-78
2022/12/07 09:51:22;;;;;;;20.60;13.13;;;;;;;3.26;97.95;99790.32;1681918;84;25777;-78
2022/12/07 09:53:51;;;;;;;26.00;12.93;;;;;;;3.24;97.73;99790.98;1675810;84;26004;-79
2022/12/07 09:56:19;;;;;;;27.13;16.67;;;;;;;3.23;97.60;99792.79;1681672;84;27488;-79
2022/12/07 09:58:46;;;;;;;25.85;15.83;;;;;;;3.23;97.64;99793.31;1689514;84;25813;-79
2022/12/07 10:01:17;;;;;;;26.68;15.38;;;;;;;3.24;97.89;99797.11;1682487;84;25697;-79
2022/12/07 10:03:55;;;;;;;26.40;14.78;;;;;;;3.27;97.77;99794.16;1720979;82;25912;-79
2022/12/07 10:06:22;;;;;;;23.00;14.87;;;;;;;3.28;97.83;99797.61;1737992;82;26049;-79
2022/12/07 10:08:48;;;;;;;25.10;13.40;;;;;;;3.27;97.52;99798.61;1728216;81;27477;-79
2022/12/07 10:11:15;;;;;;;22.15;14.03;;;;;;;3.26;97.62;99800.91;1732001;82;26569;-79
2022/12/07 10:13:48;;;;;;;23.67;15.60;;;;;;;3.26;97.68;99791.65;1727262;81;25824;-79
2022/12/07 10:16:41;;;;;;;34.27;19.65;;;;;;;3.27;97.72;99790.19;1723711;82;25849;-79
2022/12/07 10:19:27;;;;;;;33.88;20.55;;;;;;;3.28;97.86;99794.96;1720157;81;25879;-79
2022/12/07 10:22:12;;;;;;;29.55;18.65;;;;;;;3.30;97.88;99787.69;1690186;83;28308;-78
2022/12/07 10:24:42;;;;;;;29.00;16.60;;;;;;;3.30;98.04;99791.17;1726623;82;26546;-79
2022/12/07 10:27:32;;;;;;;22.73;15.37;;;;;;;3.34;98.22;99783.24;1731602;82;26401;-79
2022/12/07 10:30:06;;;;;;;29.42;19.05;;;;;;;3.39;98.35;99776.98;1722076;81;25969;-89
2022/12/07 10:32:36;;;;;;;26.07;18.40;;;;;;;3.45;98.32;99778.14;1719584;82;25939;-87
2022/12/07 10:35:24;;;;;;;21.27;14.68;;;;;;;3.47;98.26;99771.70;1718034;82;27473;-83
2022/12/07 10:37:52;;;;;;;26.55;17.17;;;;;;;3.50;98.18;99767.42;1687826;83;26259;-87
2022/12/07 10:40:33;;;;;;;34.60;23.62;;;;;;;3.50;97.99;99770.55;1691179;84;25773;-84
2022/12/07 10:43:14;;;;;;;24.72;15.90;;;;;;;3.53;98.10;99776.86;1716073;83;25832;-83
2022/12/07 10:45:52;;;;;;;23.05;15.75;;;;;;;3.56;97.99;99777.36;1692956;83;25812;-86
2022/12/07 10:48:36;;;;;;;55.48;37.35;;;;;;;3.56;97.90;99767.26;1726042;82;27466;-89
2022/12/07 10:51:12;;;;;;;25.00;17.55;;;;;;;3.58;98.06;99768.76;1735504;82;25845;-86
2022/12/07 10:54:05;;;;;;;25.52;18.45;;;;;;;3.60;97.85;99768.09;1737610;82;25788;-85
2022/12/07 10:56:57;;;;;;;25.50;16.70;;;;;;;3.58;97.53;99766.11;1683764;85;26716;-82
2022/12/07 10:59:47;;;;;;;25.48;16.93;;;;;;;3.57;97.32;99769.73;1722397;82;25920;-86
2022/12/07 11:02:38;;;;;;;21.97;14.73;;;;;;;3.57;97.62;99773.70;1727689;82;27468;-81
2022/12/07 11:05:27;;;;;;;24.57;15.75;;;;;;;3.62;97.71;99775.87;1743563;81;25872;-82
2022/12/07 11:08:06;;;;;;;22.17;15.05;;;;;;;3.61;97.51;99768.94;1723694;82;25959;-83
2022/12/07 11:11:02;;;;;;;23.57;16.23;;;;;;;3.62;97.70;99765.28;1737354;81;25769;-84
2022/12/07 11:14:00;;;;;;;22.85;14.85;;;;;;;3.66;97.63;99766.61;1729295;82;25879;-83
2022/12/07 11:16:56;;;;;;;25.52;17.52;;;;;;;3.70;97.68;99768.77;1717726;82;25986;-84
2022/12/07 11:19:50;;;;;;;23.35;16.10;;;;;;;3.74;97.72;99765.31;1675054;84;25863;-85
2022/12/07 11:22:35;;;;;;;26.97;18.00;;;;;;;3.75;97.36;99765.63;1716924;81;26383;-90
2022/12/07 11:25:41;;;;;;;22.22;15.18;;;;;;;3.75;97.42;99760.34;1728136;82;25771;-91
2022/12/07 11:28:25;;;;;;;27.07;18.35;;;;;;;3.77;97.08;99753.89;1731241;81;25339;-93
2022/12/07 11:34:19;;;;;;;;;;;;;;;;;;;;;
2022/12/07 11:36:56;;;;;;;47.33;32.00;;;;;;;3.97;97.98;99752.25;1643736;81;25627;-91
2022/12/07 11:39:46;;;;;;;41.05;29.25;;;;;;;3.98;97.57;99758.70;1694210;83;25393;-91
2022/12/07 11:42:18;;;;;;;38.65;26.05;;;;;;;4.00;97.49;99750.61;1711526;82;25763;-84
2022/12/07 11:45:21;;;;;;;23.30;17.00;;;;;;;3.99;97.13;99743.63;1716693;82;27516;-89
2022/12/07 11:48:04;;;;;;;24.12;16.77;;;;;;;3.93;96.92;99746.46;1747211;81;25769;-92
2022/12/07 11:50:54;;;;;;;22.02;16.65;;;;;;;3.85;96.78;99743.30;1695255;84;25331;-89
2022/12/07 11:53:36;;;;;;;;;;;;;;;;;;;;;
2022/12/07 11:56:17;;;;;;;17.55;12.53;;;;;;;3.82;97.21;99737.51;1721004;81;25336;-90
2022/12/07 11:59:01;;;;;;;16.77;12.30;;;;;;;3.80;97.08;99735.03;1721835;81;26244;-89
2022/12/07 12:01:44;;;;;;;15.30;10.75;;;;;;;3.80;97.07;99732.38;1743438;81;25672;-88
2022/12/07 12:04:36;;;;;;;17.60;11.40;;;;;;;3.76;96.47;99731.03;1739187;82;25868;-87